Time;durP1;ratioP1;P1;durP2;ratioP2;P2;SDS_P1;SDS_P2;PMS_P1;PMS_P2;Temp;Humidity;BMP_temperature;BMP_pressure;BME280_temperature;BME280_humidity;BME280_pressure;Samples;Min_cycle;Max_cycle;Signal;HPM_P1;HPM_P2
2022/08/08 00:00:13;;;;;;;1.40;1.30;;;20.20;58.70;;;;;;6099217;23;20442;-73
2022/08/08 00:02:49;;;;;;;1.63;1.50;;;20.20;58.70;;;;;;6093232;23;20468;-72
2022/08/08 00:05:23;;;;;;;1.70;1.53;;;20.30;58.80;;;;;;6096471;23;20453;-73
2022/08/08 00:07:56;;;;;;;1.67;1.57;;;20.20;58.80;;;;;;6090442;23;20452;-73
2022/08/08 00:10:31;;;;;;;1.70;1.60;;;20.20;59.10;;;;;;6092739;23;20469;-73
2022/08/08 00:13:09;;;;;;;1.87;1.40;;;20.10;59.10;;;;;;6096054;23;20463;-73
2022/08/08 00:15:40;;;;;;;1.73;1.50;;;20.20;59.30;;;;;;6092734;23;20461;-73
2022/08/08 00:18:16;;;;;;;2.10;1.60;;;20.10;59.40;;;;;;6088814;23;20451;-72
2022/08/08 00:20:49;;;;;;;3.37;1.70;;;20.10;59.50;;;;;;6094944;23;20843;-72
2022/08/08 00:23:24;;;;;;;1.77;1.67;;;20.10;59.50;;;;;;6091008;23;20458;-72
2022/08/08 00:25:56;;;;;;;1.83;1.73;;;20.00;59.60;;;;;;6089928;23;20533;-72
2022/08/08 00:28:29;;;;;;;1.67;1.47;;;20.00;59.50;;;;;;6099204;23;20857;-72
2022/08/08 00:30:59;;;;;;;2.70;1.43;;;20.00;59.70;;;;;;6099810;23;20501;-72
2022/08/08 00:33:32;;;;;;;1.37;1.27;;;19.90;59.70;;;;;;6091129;23;20458;-72
2022/08/08 00:36:06;;;;;;;1.73;1.40;;;19.90;59.80;;;;;;6101395;23;21028;-72
2022/08/08 00:38:44;;;;;;;1.90;1.70;;;19.90;60.40;;;;;;6096592;23;20435;-72
2022/08/08 00:41:58;;;;;;;4.23;1.73;;;19.80;60.80;;;;;;6100364;23;20473;-73
2022/08/08 00:44:56;;;;;;;1.73;1.50;;;19.60;61.10;;;;;;6078882;23;20929;-73
2022/08/08 00:48:19;;;;;;;1.70;1.50;;;19.60;62.20;;;;;;6095844;23;20453;-73
2022/08/08 00:51:28;;;;;;;1.73;1.63;;;19.40;62.20;;;;;;6090366;23;20485;-73
2022/08/08 00:54:22;;;;;;;1.80;1.43;;;19.30;63.00;;;;;;6071471;23;20477;-73
2022/08/08 00:57:28;;;;;;;1.97;1.63;;;19.10;62.50;;;;;;6090912;23;20442;-72
2022/08/08 01:00:11;;;;;;;1.97;1.77;;;18.80;63.30;;;;;;6101772;23;20504;-73
2022/08/08 01:03:08;;;;;;;1.83;1.70;;;18.60;64.00;;;;;;6087599;23;20486;-72
2022/08/08 01:06:13;;;;;;;2.63;1.87;;;18.40;65.20;;;;;;6093702;23;20478;-73
2022/08/08 01:09:09;;;;;;;1.90;1.63;;;18.20;65.90;;;;;;6088428;23;20490;-73
2022/08/08 01:12:13;;;;;;;2.60;2.20;;;18.00;66.30;;;;;;6051099;23;20552;-73
2022/08/08 01:15:12;;;;;;;1.83;1.53;;;17.90;66.60;;;;;;6047869;23;20446;-72
2022/08/08 01:18:14;;;;;;;1.60;1.50;;;17.90;67.30;;;;;;6099965;23;20514;-72
2022/08/08 01:20:56;;;;;;;1.60;1.50;;;17.90;68.00;;;;;;6090303;23;21251;-72
2022/08/08 01:24:02;;;;;;;1.50;1.40;;;17.90;67.80;;;;;;6092153;23;20520;-72
2022/08/08 01:26:54;;;;;;;1.60;1.50;;;17.90;67.70;;;;;;6092041;23;20936;-72
2022/08/08 01:29:41;;;;;;;3.03;1.63;;;18.00;67.60;;;;;;6058245;23;20437;-72
2022/08/08 01:32:59;;;;;;;2.60;1.77;;;17.90;68.20;;;;;;6099464;23;21058;-72
2022/08/08 01:35:57;;;;;;;1.80;1.70;;;17.90;68.80;;;;;;6075583;23;20494;-72
2022/08/08 01:38:56;;;;;;;2.20;1.50;;;17.90;68.80;;;;;;6089397;23;20438;-73
2022/08/08 01:41:35;;;;;;;4.73;1.70;;;17.90;69.60;;;;;;6087163;23;21084;-72
2022/08/08 01:44:13;;;;;;;1.70;1.60;;;17.80;70.20;;;;;;6101619;23;20437;-72
2022/08/08 01:46:46;;;;;;;2.10;1.90;;;17.70;69.80;;;;;;6096539;23;20438;-72
2022/08/08 01:49:21;;;;;;;2.47;1.70;;;17.70;69.50;;;;;;6092558;23;20445;-72
2022/08/08 01:51:58;;;;;;;1.97;1.87;;;17.80;69.40;;;;;;6093341;23;20956;-72
2022/08/08 01:54:47;;;;;;;2.23;1.90;;;17.80;69.60;;;;;;6094310;23;20446;-72
2022/08/08 01:57:26;;;;;;;2.00;1.80;;;17.80;69.50;;;;;;6092090;23;20444;-71
2022/08/08 02:00:11;;;;;;;1.70;1.60;;;17.80;70.30;;;;;;6100666;23;20452;-72
2022/08/08 02:03:13;;;;;;;2.77;1.77;;;17.80;70.30;;;;;;6091756;23;20512;-71
2022/08/08 02:05:51;;;;;;;2.40;2.20;;;17.80;70.70;;;;;;6081570;23;21010;-72
2022/08/08 02:08:25;;;;;;;2.10;1.90;;;17.70;70.50;;;;;;6090519;23;20465;-72
2022/08/08 02:11:05;;;;;;;2.30;2.13;;;17.70;71.20;;;;;;6090731;23;20442;-71
2022/08/08 02:13:41;;;;;;;2.10;1.90;;;17.70;72.20;;;;;;6096523;23;20444;-71
2022/08/08 02:16:17;;;;;;;2.10;1.90;;;17.50;72.50;;;;;;6088334;23;20460;-71
2022/08/08 02:18:53;;;;;;;2.30;2.10;;;17.40;73.00;;;;;;6096298;23;20442;-70
2022/08/08 02:24:18;;;;;;;2.87;1.80;;;17.40;74.20;;;;;;6093109;23;20441;-71
2022/08/08 02:26:51;;;;;;;1.83;1.63;;;17.40;75.30;;;;;;6088857;23;20461;-71
2022/08/08 02:29:34;;;;;;;2.27;1.80;;;17.40;74.30;;;;;;6093853;23;20945;-72
2022/08/08 02:32:22;;;;;;;2.10;1.80;;;17.40;73.90;;;;;;6094971;23;20977;-72
2022/08/08 02:35:07;;;;;;;1.93;1.50;;;17.40;73.30;;;;;;6092984;23;20442;-72
2022/08/08 02:37:50;;;;;;;1.80;1.50;;;17.40;73.60;;;;;;6090921;23;20438;-72
2022/08/08 02:40:26;;;;;;;1.87;1.60;;;17.50;73.80;;;;;;6094508;23;20674;-72
2022/08/08 02:43:30;;;;;;;2.00;1.83;;;17.60;73.60;;;;;;6088595;23;20468;-72
2022/08/08 02:46:30;;;;;;;1.83;1.73;;;17.60;73.90;;;;;;6084069;23;20515;-72
2022/08/08 02:49:26;;;;;;;5.13;1.87;;;17.60;73.70;;;;;;6089349;23;20466;-72
2022/08/08 02:52:25;;;;;;;2.30;1.53;;;17.70;73.50;;;;;;6090176;23;20533;-72
2022/08/08 02:55:33;;;;;;;1.73;1.40;;;17.70;72.90;;;;;;6094887;23;20516;-72
2022/08/08 02:58:47;;;;;;;1.50;1.40;;;17.70;72.70;;;;;;6091073;23;20451;-72
2022/08/08 03:01:43;;;;;;;1.50;1.30;;;17.70;72.60;;;;;;6090008;23;20477;-72
2022/08/08 03:04:49;;;;;;;1.60;1.50;;;17.70;72.50;;;;;;6076654;23;20442;-71
2022/08/08 03:07:51;;;;;;;1.50;1.30;;;17.80;72.40;;;;;;6102961;23;20468;-72
2022/08/08 03:10:38;;;;;;;1.43;1.33;;;17.80;71.80;;;;;;6096786;23;20519;-72
2022/08/08 03:13:44;;;;;;;1.57;1.33;;;17.80;71.30;;;;;;6100877;23;20557;-72
2022/08/08 03:16:31;;;;;;;3.10;1.70;;;17.80;71.70;;;;;;6089937;23;20461;-72
2022/08/08 03:19:16;;;;;;;1.57;1.47;;;17.80;72.70;;;;;;6095819;23;20471;-72
2022/08/08 03:21:43;;;;;;;3.60;1.87;;;17.70;72.70;;;;;;6096547;23;20499;-72
2022/08/08 03:24:11;;;;;;;2.37;1.93;;;17.60;73.60;;;;;;6094410;23;20521;-72
2022/08/08 03:26:43;;;;;;;1.90;1.77;;;17.40;74.30;;;;;;6098217;23;20449;-72
2022/08/08 03:29:17;;;;;;;1.97;1.77;;;17.30;75.60;;;;;;6091812;23;20478;-71
2022/08/08 03:34:29;;;;;;;2.20;1.83;;;17.20;77.10;;;;;;6103004;23;20952;-71
2022/08/08 03:36:57;;;;;;;2.10;1.87;;;16.90;78.30;;;;;;6095502;23;20445;-71
2022/08/08 03:39:25;;;;;;;2.00;1.90;;;16.80;79.20;;;;;;6091270;23;20541;-71
2022/08/08 03:41:52;;;;;;;1.97;1.87;;;16.70;80.40;;;;;;6095093;23;20509;-72
2022/08/08 03:44:19;;;;;;;2.33;2.00;;;16.60;81.20;;;;;;6096047;23;20434;-71
2022/08/08 03:46:47;;;;;;;2.23;2.00;;;16.60;82.30;;;;;;6107582;23;20465;-71
2022/08/08 03:49:19;;;;;;;2.27;2.10;;;16.50;83.40;;;;;;6093447;23;20786;-71
2022/08/08 03:51:47;;;;;;;2.10;2.00;;;16.40;84.60;;;;;;6090812;23;20865;-71
2022/08/08 03:54:15;;;;;;;2.70;2.27;;;16.40;85.60;;;;;;6098514;23;20944;-71
2022/08/08 03:56:44;;;;;;;2.70;2.33;;;16.30;86.60;;;;;;6096993;23;20513;-71
2022/08/08 03:59:11;;;;;;;2.40;2.20;;;16.20;88.00;;;;;;6098035;23;20442;-71
2022/08/08 04:01:40;;;;;;;2.30;1.80;;;16.20;89.00;;;;;;6089495;23;20496;-72
2022/08/08 04:04:07;;;;;;;2.10;2.00;;;16.10;89.90;;;;;;6092299;23;21015;-71
2022/08/08 04:06:34;;;;;;;2.30;2.20;;;16.10;90.30;;;;;;6091441;23;20469;-71
2022/08/08 04:09:03;;;;;;;2.40;2.20;;;16.00;91.10;;;;;;6098326;23;20457;-72
2022/08/08 04:11:32;;;;;;;2.20;2.10;;;15.80;91.70;;;;;;6094236;23;20820;-72
2022/08/08 04:14:00;;;;;;;2.20;2.00;;;15.80;92.10;;;;;;6090165;23;20520;-72
2022/08/08 04:16:27;;;;;;;2.00;1.90;;;15.80;92.60;;;;;;6094328;23;21006;-71
2022/08/08 04:18:54;;;;;;;2.27;2.07;;;15.70;93.10;;;;;;6090149;23;20958;-70
2022/08/08 04:21:21;;;;;;;2.40;2.10;;;15.70;93.60;;;;;;6091028;23;20860;-71
2022/08/08 04:23:48;;;;;;;2.73;2.30;;;15.60;94.00;;;;;;6088178;23;20521;-71
2022/08/08 04:26:15;;;;;;;2.30;2.10;;;15.50;94.50;;;;;;6102863;23;20458;-71
2022/08/08 04:28:43;;;;;;;3.63;2.47;;;15.50;95.00;;;;;;6096332;23;20437;-71
2022/08/08 04:31:11;;;;;;;2.20;2.00;;;15.40;95.40;;;;;;6091346;23;20446;-71
2022/08/08 04:33:38;;;;;;;3.23;2.67;;;15.40;95.80;;;;;;6094370;23;20474;-71
2022/08/08 04:36:05;;;;;;;2.17;2.07;;;15.40;96.10;;;;;;6097296;23;20450;-71
2022/08/08 04:38:33;;;;;;;2.17;2.03;;;15.40;96.50;;;;;;6090084;23;20775;-70
2022/08/08 04:41:00;;;;;;;2.27;2.07;;;15.40;96.90;;;;;;6090438;23;20438;-70
2022/08/08 04:43:27;;;;;;;2.80;2.23;;;15.30;97.30;;;;;;6096627;23;20504;-71
2022/08/08 04:45:54;;;;;;;2.83;1.83;;;15.30;97.70;;;;;;6094904;23;20465;-71
2022/08/08 04:48:23;;;;;;;2.30;2.10;;;15.30;98.00;;;;;;6098664;23;20474;-71
2022/08/08 04:50:50;;;;;;;2.60;2.13;;;15.20;98.50;;;;;;6096087;23;20485;-71
2022/08/08 04:53:17;;;;;;;2.47;2.20;;;15.20;98.80;;;;;;6089178;23;20983;-71
2022/08/08 04:55:44;;;;;;;2.87;2.30;;;15.30;98.90;;;;;;6093961;23;20438;-71
2022/08/08 04:58:13;;;;;;;3.73;2.10;;;15.30;98.90;;;;;;6089673;23;20437;-71
2022/08/08 05:00:40;;;;;;;2.90;2.30;;;15.30;99.10;;;;;;6091080;23;20440;-71
2022/08/08 05:03:07;;;;;;;2.43;2.23;;;15.30;99.20;;;;;;6088587;23;21041;-71
2022/08/08 05:05:36;;;;;;;2.40;2.20;;;15.30;99.30;;;;;;6089735;23;20843;-75
2022/08/08 05:08:03;;;;;;;2.60;2.40;;;15.40;99.70;;;;;;6096605;23;20472;-71
2022/08/08 05:10:30;;;;;;;2.33;2.13;;;15.50;99.70;;;;;;6096467;23;20995;-71
2022/08/08 05:12:57;;;;;;;2.33;2.23;;;15.60;99.60;;;;;;6100753;23;20502;-71
2022/08/08 05:15:24;;;;;;;2.43;2.23;;;15.70;99.50;;;;;;6093518;23;20516;-71
2022/08/08 05:17:51;;;;;;;2.17;2.03;;;15.70;99.40;;;;;;6109652;23;20491;-71
2022/08/08 05:20:20;;;;;;;2.43;2.23;;;15.80;99.30;;;;;;6101906;23;20429;-71
2022/08/08 05:22:49;;;;;;;2.70;2.37;;;15.80;99.30;;;;;;6092999;23;20454;-71
2022/08/08 05:25:16;;;;;;;3.13;2.00;;;15.90;99.50;;;;;;6089858;23;20431;-72
2022/08/08 05:27:43;;;;;;;2.80;2.60;;;15.90;99.50;;;;;;6099551;23;20434;-73
2022/08/08 05:30:11;;;;;;;2.50;2.30;;;16.00;99.20;;;;;;6095608;23;20487;-71
2022/08/08 05:32:39;;;;;;;2.47;2.27;;;16.10;99.20;;;;;;6103004;23;20536;-73
2022/08/08 05:35:08;;;;;;;2.83;2.60;;;16.20;99.30;;;;;;6092088;23;20438;-72
2022/08/08 05:37:38;;;;;;;3.07;2.87;;;16.30;99.40;;;;;;6096086;23;20443;-72
2022/08/08 05:40:08;;;;;;;2.80;2.57;;;16.40;99.50;;;;;;6099157;23;20446;-73
2022/08/08 05:42:41;;;;;;;5.43;3.40;;;16.40;99.40;;;;;;6091013;23;20621;-72
2022/08/08 05:45:09;;;;;;;2.90;2.70;;;16.50;99.50;;;;;;6098255;23;20442;-73
2022/08/08 05:47:37;;;;;;;3.13;2.87;;;16.60;99.20;;;;;;6096956;23;20505;-73
2022/08/08 05:50:06;;;;;;;3.00;2.80;;;16.80;99.20;;;;;;6090293;23;21013;-72
2022/08/08 05:52:34;;;;;;;2.53;2.33;;;16.90;99.30;;;;;;6104121;23;20965;-72
2022/08/08 05:55:01;;;;;;;3.10;2.63;;;17.00;99.00;;;;;;6095091;23;20446;-73
2022/08/08 05:57:35;;;;;;;3.93;2.83;;;17.10;99.20;;;;;;6088958;23;20472;-73
2022/08/08 06:00:06;;;;;;;4.83;2.80;;;17.20;98.90;;;;;;6094178;23;20468;-75
2022/08/08 06:05:21;;;;;;;5.67;3.23;;;17.30;99.00;;;;;;6089352;23;20446;-71
2022/08/08 06:07:50;;;;;;;3.07;2.63;;;17.30;98.80;;;;;;6098065;23;20834;-73
2022/08/08 06:10:19;;;;;;;2.60;2.40;;;17.40;99.00;;;;;;6103632;23;20447;-72
2022/08/08 06:12:49;;;;;;;3.30;2.73;;;17.50;99.10;;;;;;6089077;23;20482;-73
2022/08/08 06:15:17;;;;;;;2.70;2.50;;;17.60;98.60;;;;;;6094154;23;20435;-72
2022/08/08 06:17:44;;;;;;;3.33;3.03;;;17.70;98.70;;;;;;6100181;23;20453;-74
2022/08/08 06:20:12;;;;;;;2.70;2.23;;;17.80;98.20;;;;;;6088276;23;20488;-73
2022/08/08 06:22:40;;;;;;;2.60;2.40;;;17.90;98.00;;;;;;6095066;23;20465;-74
2022/08/08 06:25:08;;;;;;;2.63;2.43;;;18.00;97.60;;;;;;6095356;23;20793;-73
2022/08/08 06:27:40;;;;;;;2.90;2.70;;;18.10;97.80;;;;;;6090145;23;20442;-74
2022/08/08 06:30:11;;;;;;;2.80;2.60;;;18.20;97.70;;;;;;6108312;23;20485;-73
2022/08/08 06:32:42;;;;;;;2.30;2.07;;;18.30;97.70;;;;;;6093640;23;20490;-73
2022/08/08 06:35:12;;;;;;;2.70;2.50;;;18.50;97.20;;;;;;6090484;23;20432;-74
2022/08/08 06:37:44;;;;;;;2.60;2.27;;;18.70;97.10;;;;;;6091432;23;21011;-74
2022/08/08 06:40:14;;;;;;;3.70;2.67;;;18.70;96.80;;;;;;6092622;23;20861;-73
2022/08/08 06:42:47;;;;;;;3.93;2.50;;;18.90;96.40;;;;;;6095956;23;20475;-72
2022/08/08 06:45:16;;;;;;;3.63;2.67;;;19.10;96.40;;;;;;6090109;23;20433;-73
2022/08/08 06:47:44;;;;;;;2.60;2.40;;;19.30;96.50;;;;;;6096733;23;20538;-74
2022/08/08 06:50:11;;;;;;;3.07;2.77;;;19.50;96.50;;;;;;6095981;23;20458;-71
2022/08/08 06:52:39;;;;;;;3.20;2.50;;;19.60;96.10;;;;;;6090119;23;20469;-73
2022/08/08 06:55:07;;;;;;;2.37;2.17;;;19.70;96.00;;;;;;6090827;23;20447;-73
2022/08/08 06:57:34;;;;;;;2.90;2.60;;;19.90;95.60;;;;;;6107892;23;20443;-71
2022/08/08 07:00:01;;;;;;;3.00;2.73;;;20.00;95.30;;;;;;6100449;23;20518;-70
2022/08/08 07:02:33;;;;;;;2.80;2.60;;;20.20;95.10;;;;;;6093091;23;20456;-71
2022/08/08 07:05:04;;;;;;;2.83;2.63;;;20.30;95.60;;;;;;6095296;23;20441;-71
2022/08/08 07:07:49;;;;;;;4.23;2.83;;;20.50;95.00;;;;;;6093072;23;20465;-71
2022/08/08 07:10:19;;;;;;;3.07;2.87;;;20.60;94.80;;;;;;6088495;23;20446;-72
2022/08/08 07:12:53;;;;;;;4.17;2.50;;;20.80;94.90;;;;;;6088987;23;20518;-72
2022/08/08 07:15:31;;;;;;;2.80;2.60;;;21.10;94.50;;;;;;6088277;23;20491;-73
2022/08/08 07:18:03;;;;;;;3.03;2.73;;;21.40;94.20;;;;;;6099637;23;20459;-71
2022/08/08 07:20:36;;;;;;;2.63;2.43;;;21.70;93.80;;;;;;6090981;23;20489;-71
2022/08/08 07:23:11;;;;;;;2.80;2.60;;;22.10;93.50;;;;;;6094611;23;20441;-71
2022/08/08 07:25:39;;;;;;;3.03;2.77;;;22.40;92.80;;;;;;6092992;23;20450;-71
2022/08/08 07:28:10;;;;;;;2.83;2.63;;;22.80;92.10;;;;;;6086045;23;20956;-72
2022/08/08 07:30:39;;;;;;;2.83;2.60;;;23.20;91.30;;;;;;6091716;23;21189;-71
2022/08/08 07:33:10;;;;;;;3.80;2.80;;;23.50;90.80;;;;;;6086409;23;20485;-71
2022/08/08 07:35:38;;;;;;;3.30;2.87;;;23.80;90.30;;;;;;6104256;23;20436;-72
2022/08/08 07:38:06;;;;;;;3.23;2.90;;;24.10;89.60;;;;;;6091120;23;20453;-71
2022/08/08 07:40:34;;;;;;;2.83;2.63;;;24.30;88.80;;;;;;6092920;23;20442;-71
2022/08/08 07:43:03;;;;;;;2.60;2.40;;;24.90;88.00;;;;;;6101877;23;20783;-71
2022/08/08 07:45:31;;;;;;;2.53;2.33;;;25.20;85.90;;;;;;6097501;23;20569;-71
2022/08/08 07:47:58;;;;;;;2.43;2.33;;;25.70;84.30;;;;;;6098425;23;20473;-71
2022/08/08 07:50:27;;;;;;;3.00;2.80;;;26.20;82.20;;;;;;6087104;23;20553;-72
2022/08/08 07:52:59;;;;;;;2.53;2.33;;;26.50;79.70;;;;;;6086957;23;20458;-72
2022/08/08 07:55:29;;;;;;;3.07;2.37;;;26.80;78.50;;;;;;6093364;23;20438;-71
2022/08/08 07:58:02;;;;;;;3.77;2.50;;;27.20;77.40;;;;;;6100709;23;20462;-72
2022/08/08 08:00:37;;;;;;;2.60;2.40;;;27.50;76.20;;;;;;6092320;23;20888;-72
2022/08/08 08:03:06;;;;;;;2.60;2.40;;;28.00;74.50;;;;;;6100955;23;20445;-71
2022/08/08 08:05:40;;;;;;;3.70;2.40;;;28.30;72.50;;;;;;6102801;23;20533;-72
2022/08/08 08:08:11;;;;;;;1.93;1.83;;;28.50;71.30;;;;;;6097988;23;20940;-71
2022/08/08 08:10:39;;;;;;;2.70;2.50;;;28.70;70.00;;;;;;6093584;23;20469;-72
2022/08/08 08:13:22;;;;;;;2.27;2.07;;;29.00;69.10;;;;;;6091963;23;20454;-72
2022/08/08 08:15:55;;;;;;;2.63;2.43;;;29.30;68.00;;;;;;6106659;23;20437;-73
2022/08/08 08:18:23;;;;;;;2.73;2.20;;;29.70;66.70;;;;;;6096162;23;20929;-72
2022/08/08 08:20:53;;;;;;;2.30;2.10;;;30.10;64.80;;;;;;6097554;23;20987;-73
2022/08/08 08:23:20;;;;;;;2.30;2.20;;;30.40;63.90;;;;;;6093184;23;20521;-73
2022/08/08 08:25:47;;;;;;;2.83;2.53;;;30.50;63.30;;;;;;6100374;23;20485;-73
2022/08/08 08:28:14;;;;;;;2.30;2.20;;;30.60;62.40;;;;;;6092935;23;20442;-73
2022/08/08 08:30:41;;;;;;;3.83;2.40;;;30.70;61.90;;;;;;6105850;23;20484;-73
2022/08/08 08:33:09;;;;;;;2.57;2.33;;;30.70;61.60;;;;;;6093482;23;20525;-72
2022/08/08 08:35:36;;;;;;;2.37;2.13;;;30.70;61.60;;;;;;6094175;23;21110;-73
2022/08/08 08:38:04;;;;;;;2.40;2.20;;;30.50;60.60;;;;;;6087722;23;20434;-73
2022/08/08 08:40:32;;;;;;;3.03;2.30;;;30.40;61.40;;;;;;6094753;23;20458;-72
2022/08/08 08:43:00;;;;;;;2.67;2.10;;;30.40;59.80;;;;;;6098021;23;20457;-72
2022/08/08 08:45:27;;;;;;;2.10;1.90;;;30.20;59.80;;;;;;6090117;23;20438;-73
2022/08/08 08:47:55;;;;;;;2.70;2.20;;;30.40;60.00;;;;;;6085063;23;20433;-72
2022/08/08 08:50:24;;;;;;;6.00;2.20;;;30.50;60.60;;;;;;6093852;23;20437;-72
2022/08/08 08:52:53;;;;;;;2.80;2.33;;;30.70;59.60;;;;;;6096433;23;20490;-72
2022/08/08 08:55:22;;;;;;;2.33;2.13;;;31.00;59.20;;;;;;6098908;23;20438;-72
2022/08/08 08:57:53;;;;;;;2.40;2.20;;;31.20;58.40;;;;;;6104706;23;20448;-72
2022/08/08 09:00:20;;;;;;;2.60;2.40;;;31.20;58.00;;;;;;6090849;23;20459;-72
2022/08/08 09:02:50;;;;;;;2.70;2.43;;;31.10;57.80;;;;;;6094901;23;20518;-72
2022/08/08 09:05:18;;;;;;;2.50;2.40;;;31.00;57.00;;;;;;6097630;23;20453;-72
2022/08/08 09:07:46;;;;;;;2.30;2.20;;;31.00;57.80;;;;;;6092301;23;20487;-72
2022/08/08 09:10:15;;;;;;;2.47;2.10;;;31.20;57.40;;;;;;6090102;23;20517;-72
2022/08/08 09:12:46;;;;;;;2.33;2.23;;;31.50;57.50;;;;;;6091357;23;20440;-72
2022/08/08 09:15:15;;;;;;;2.50;2.30;;;31.60;56.60;;;;;;6099110;23;20937;-72
2022/08/08 09:17:42;;;;;;;2.10;1.93;;;31.60;56.40;;;;;;6101523;23;20469;-71
2022/08/08 09:20:10;;;;;;;2.10;2.00;;;31.50;56.20;;;;;;6091815;23;20512;-72
2022/08/08 09:22:37;;;;;;;2.00;1.90;;;31.60;56.40;;;;;;6090331;23;20509;-71
2022/08/08 09:25:06;;;;;;;3.20;2.33;;;31.60;56.50;;;;;;6089054;23;20546;-72
2022/08/08 09:27:34;;;;;;;2.23;2.10;;;31.90;56.10;;;;;;6095519;23;20441;-72
2022/08/08 09:30:07;;;;;;;2.40;2.30;;;32.10;55.40;;;;;;6090829;23;20438;-71
2022/08/08 09:32:37;;;;;;;3.07;2.17;;;32.10;54.90;;;;;;6099885;23;20483;-71
2022/08/08 09:35:06;;;;;;;4.23;2.27;;;32.20;55.30;;;;;;6089440;23;20470;-72
2022/08/08 09:37:45;;;;;;;2.20;2.03;;;32.40;54.60;;;;;;6093001;23;20836;-71
2022/08/08 09:40:14;;;;;;;2.30;2.10;;;32.40;53.40;;;;;;6103056;23;20434;-72
2022/08/08 09:42:43;;;;;;;2.30;2.10;;;32.40;54.20;;;;;;6091945;23;20435;-72
2022/08/08 09:45:16;;;;;;;2.37;2.20;;;32.70;53.50;;;;;;6096741;23;20579;-72
2022/08/08 09:47:44;;;;;;;2.60;2.40;;;33.00;53.10;;;;;;6109143;23;20435;-72
2022/08/08 09:50:15;;;;;;;2.37;2.17;;;33.20;52.60;;;;;;6096697;23;20426;-72
2022/08/08 09:52:46;;;;;;;2.30;1.90;;;33.40;52.50;;;;;;6092472;23;20430;-72
2022/08/08 09:55:13;;;;;;;2.03;1.93;;;33.80;52.20;;;;;;6088213;23;20956;-72
2022/08/08 09:57:44;;;;;;;2.07;1.70;;;33.90;51.30;;;;;;6089441;23;21168;-72
2022/08/08 10:00:15;;;;;;;2.20;2.03;;;34.00;51.10;;;;;;6092714;23;21017;-73
2022/08/08 10:02:45;;;;;;;3.97;2.40;;;34.20;51.00;;;;;;6093229;23;20798;-70
2022/08/08 10:05:15;;;;;;;3.03;2.50;;;34.40;50.00;;;;;;6097342;23;20928;-73
2022/08/08 10:07:55;;;;;;;2.00;1.90;;;34.40;50.40;;;;;;6094815;23;20431;-73
2022/08/08 10:10:25;;;;;;;2.70;2.27;;;34.30;50.90;;;;;;6089869;23;20430;-75
2022/08/08 10:12:53;;;;;;;2.30;2.10;;;33.70;50.70;;;;;;6094302;23;20544;-71
2022/08/08 10:15:22;;;;;;;2.50;2.30;;;33.30;50.30;;;;;;6095536;23;20473;-72
2022/08/08 10:17:51;;;;;;;3.00;2.07;;;33.10;50.10;;;;;;6093143;23;20529;-71
2022/08/08 10:20:18;;;;;;;2.30;2.10;;;32.90;49.80;;;;;;6091392;23;20439;-71
2022/08/08 10:22:54;;;;;;;2.00;1.90;;;32.90;49.90;;;;;;6090472;23;20493;-71
2022/08/08 10:25:23;;;;;;;1.80;1.70;;;32.80;49.00;;;;;;6087342;23;20437;-71
2022/08/08 10:27:52;;;;;;;2.23;2.00;;;32.70;48.80;;;;;;6092862;23;20546;-80
2022/08/08 10:30:22;;;;;;;1.97;1.77;;;32.40;48.20;;;;;;6098034;23;20431;-72
2022/08/08 10:32:54;;;;;;;1.73;1.60;;;32.30;48.60;;;;;;6097676;23;20517;-71
2022/08/08 10:35:23;;;;;;;2.27;1.60;;;32.40;47.50;;;;;;6090124;23;20520;-71
2022/08/08 10:37:52;;;;;;;1.50;1.40;;;32.00;46.10;;;;;;6100561;23;20448;-71
2022/08/08 10:40:20;;;;;;;1.77;1.50;;;31.70;46.10;;;;;;6097227;23;20492;-71
2022/08/08 10:42:49;;;;;;;2.67;1.70;;;31.70;47.70;;;;;;6096801;23;20848;-71
2022/08/08 10:45:16;;;;;;;1.57;1.40;;;31.90;47.10;;;;;;6093594;23;21318;-71
2022/08/08 10:47:52;;;;;;;1.53;1.43;;;32.30;47.20;;;;;;6099506;23;20438;-71
2022/08/08 10:50:20;;;;;;;1.67;1.57;;;32.70;46.60;;;;;;6103130;23;20433;-71
2022/08/08 10:52:47;;;;;;;1.30;1.20;;;33.00;45.60;;;;;;6106082;23;20812;-70
2022/08/08 10:55:16;;;;;;;2.10;1.80;;;33.20;45.30;;;;;;6086287;23;20524;-72
2022/08/08 10:57:46;;;;;;;3.00;1.67;;;33.30;43.80;;;;;;6096659;23;20568;-72
2022/08/08 11:00:15;;;;;;;1.60;1.50;;;33.50;44.20;;;;;;6095669;23;20441;-73
2022/08/08 11:02:42;;;;;;;2.30;1.60;;;33.70;44.30;;;;;;6085659;23;20445;-73
2022/08/08 11:05:12;;;;;;;1.60;1.50;;;34.00;43.60;;;;;;6085461;23;21136;-74
2022/08/08 11:07:42;;;;;;;1.60;1.47;;;34.10;42.90;;;;;;6104300;23;20505;-74
2022/08/08 11:10:11;;;;;;;1.40;1.30;;;34.30;42.10;;;;;;6089803;23;20438;-72
2022/08/08 11:12:46;;;;;;;1.40;1.23;;;34.10;41.70;;;;;;6103932;23;21274;-72
2022/08/08 11:15:14;;;;;;;1.40;1.30;;;34.00;42.70;;;;;;6095864;23;20470;-73
2022/08/08 11:17:42;;;;;;;1.60;1.40;;;34.00;43.10;;;;;;6099571;23;20433;-73
2022/08/08 11:20:12;;;;;;;1.70;1.40;;;34.00;42.60;;;;;;6090649;23;20438;-72
2022/08/08 11:22:40;;;;;;;1.40;1.30;;;34.10;42.80;;;;;;6096579;23;20445;-73
2022/08/08 11:25:10;;;;;;;1.40;1.30;;;34.20;41.60;;;;;;6087671;23;20435;-72
2022/08/08 11:27:38;;;;;;;1.80;1.70;;;34.40;42.50;;;;;;6091379;23;20441;-73
2022/08/08 11:30:08;;;;;;;1.60;1.50;;;34.50;41.90;;;;;;6099103;23;20520;-73
2022/08/08 11:32:39;;;;;;;1.80;1.70;;;34.40;42.30;;;;;;6095587;23;20453;-73
2022/08/08 11:35:11;;;;;;;1.93;1.73;;;34.30;42.60;;;;;;6100124;23;20461;-72
2022/08/08 11:37:40;;;;;;;1.77;1.67;;;34.10;42.00;;;;;;6087627;23;20520;-73
2022/08/08 11:40:10;;;;;;;1.80;1.70;;;34.20;43.30;;;;;;6079001;23;20842;-72
2022/08/08 11:42:38;;;;;;;1.50;1.40;;;34.20;41.40;;;;;;6090113;23;20438;-73
2022/08/08 11:45:08;;;;;;;1.50;1.40;;;34.40;41.90;;;;;;6084462;23;20434;-73
2022/08/08 11:47:36;;;;;;;2.33;1.80;;;34.60;41.60;;;;;;6087597;23;20441;-73
2022/08/08 11:50:06;;;;;;;1.97;1.60;;;34.70;42.30;;;;;;6087750;23;20439;-72
2022/08/08 11:52:36;;;;;;;1.70;1.60;;;34.60;41.50;;;;;;6083064;23;21498;-73
2022/08/08 11:55:15;;;;;;;3.00;1.63;;;34.30;42.40;;;;;;6083104;23;20549;-73
2022/08/08 11:57:41;;;;;;;1.93;1.70;;;34.30;42.10;;;;;;6089017;23;20441;-73
2022/08/08 12:00:16;;;;;;;6.23;2.03;;;34.50;41.80;;;;;;6093840;23;20435;-73
2022/08/08 12:02:48;;;;;;;1.70;1.60;;;34.60;41.60;;;;;;6086632;23;20439;-73
2022/08/08 12:05:15;;;;;;;2.47;1.60;;;34.70;41.60;;;;;;6089882;23;20488;-72
2022/08/08 12:07:49;;;;;;;2.37;2.00;;;34.70;41.20;;;;;;6084822;23;20445;-72
2022/08/08 12:10:18;;;;;;;1.90;1.70;;;34.80;41.20;;;;;;6090203;23;21220;-73
2022/08/08 12:12:47;;;;;;;1.97;1.87;;;34.90;39.80;;;;;;6093770;23;20433;-72
2022/08/08 12:15:26;;;;;;;1.97;1.77;;;35.00;41.40;;;;;;6092102;23;20461;-73
2022/08/08 12:17:54;;;;;;;1.90;1.80;;;34.60;41.60;;;;;;6098331;23;20453;-74
2022/08/08 12:20:21;;;;;;;1.80;1.70;;;34.40;42.30;;;;;;6090019;23;20548;-73
2022/08/08 12:22:51;;;;;;;3.87;1.83;;;34.40;41.50;;;;;;6093175;23;20434;-74
2022/08/08 12:25:27;;;;;;;2.50;1.60;;;34.50;41.70;;;;;;6100169;23;20450;-74
2022/08/08 12:28:10;;;;;;;1.87;1.67;;;34.60;41.60;;;;;;6085029;23;20512;-70
2022/08/08 12:30:38;;;;;;;1.60;1.50;;;34.80;41.60;;;;;;6088972;23;20462;-75
2022/08/08 12:33:15;;;;;;;2.23;1.77;;;34.70;41.00;;;;;;6091150;23;20442;-73
2022/08/08 12:35:42;;;;;;;2.00;1.90;;;34.80;41.20;;;;;;6099426;23;20542;-73
2022/08/08 12:38:12;;;;;;;3.10;1.60;;;35.00;41.80;;;;;;6095880;23;20920;-73
2022/08/08 12:40:42;;;;;;;1.53;1.40;;;35.10;41.00;;;;;;6094942;23;20454;-74
2022/08/08 12:43:10;;;;;;;5.00;1.97;;;35.00;41.40;;;;;;6099498;23;20512;-74
2022/08/08 12:45:40;;;;;;;5.93;1.70;;;35.20;41.70;;;;;;6097728;23;21545;-76
2022/08/08 12:48:15;;;;;;;5.95;2.70;;;35.30;40.60;;;;;;6092009;23;20431;-72
2022/08/08 12:50:45;;;;;;;1.77;1.67;;;35.50;40.70;;;;;;6105449;23;20207;-74
2022/08/08 16:12:56;;;;;;;1.53;1.30;;;38.30;32.60;;;;;;6094068;23;20620;-74
2022/08/08 16:15:23;;;;;;;2.43;1.00;;;38.10;33.10;;;;;;6056876;23;21354;-76
2022/08/08 16:17:50;;;;;;;2.37;1.33;;;38.30;33.40;;;;;;6058699;23;21174;-70
2022/08/08 16:20:18;;;;;;;1.70;1.20;;;38.20;32.20;;;;;;6053158;23;20460;-75
2022/08/08 16:22:45;;;;;;;1.60;1.50;;;36.90;33.00;;;;;;6052506;23;20981;-74
2022/08/08 16:25:13;;;;;;;4.80;1.30;;;36.50;33.30;;;;;;6064357;23;20853;-74
2022/08/08 16:27:40;;;;;;;2.40;1.30;;;36.20;34.00;;;;;;6060904;23;20517;-78
2022/08/08 16:30:09;;;;;;;1.57;1.30;;;35.60;34.30;;;;;;6055884;23;20969;-76
2022/08/08 16:32:36;;;;;;;1.40;1.30;;;34.80;35.10;;;;;;6061057;23;20463;-77
2022/08/08 16:35:04;;;;;;;1.50;1.20;;;34.40;36.50;;;;;;6068455;23;20533;-76
2022/08/08 16:37:31;;;;;;;1.30;1.20;;;33.90;35.90;;;;;;6070497;23;20451;-71
2022/08/08 16:39:58;;;;;;;1.60;1.30;;;33.60;36.90;;;;;;6059149;23;20526;-77
2022/08/08 16:42:25;;;;;;;4.10;1.30;;;33.20;37.10;;;;;;6054458;23;20477;-78
2022/08/08 16:44:54;;;;;;;4.10;1.20;;;32.80;37.00;;;;;;6068429;23;20462;-77
2022/08/08 16:47:24;;;;;;;1.57;1.17;;;32.40;37.50;;;;;;6056827;23;20430;-77